Stanley, ID (83278)

3:09 AM MDT on October 25, 2014 (GMT -0600)
Stanley | Change Station
CLOSE
Current Station
Airport
Location: Stanley,
Elevation: 6496 ft
Nearby Weather Stations
Active Advisory: Special Statement

Elev 6496 ft 44.17 °N, 114.93 °W | Updated 18 minutes ago

Partly Cloudy
Partly Cloudy
28 °F
Feels Like 28 °F
N
0
Wind Variable Wind from North
Gusts 7 mph

Today
High -- | Low -- °F
--% Chance of Precip.
Yesterday
High -- | Low -- °F
Precip. -- in
8:07 AM 6:38 PM
New Moon, 2% visible
Pressure 29.99 in
Visibility -9999.0 miles
Clouds
Dew Point 26 °F
Humidity 92%
Rainfall 0.00 in
Snow Depth Not available.
UV Not available.
Pollen 1.40 out of 12
Air Quality Not available.
Flu Activity No Activity
METAR KSNT 250851Z AUTO 00000KT M02/M03 A3012 RMK AO1 SLP153 T10221033 56006

More Conditions Fewer Conditions

Pressure 29.99 in
Visibility -9999.0 miles
Clouds
Dew Point 26 °F
Humidity 92%
Rainfall 0.00 in
Snow Depth Not available.
UV Not available.
Pollen 1.40 out of 12
Air Quality Not available.
Flu Activity No Activity
METAR KSNT 250851Z AUTO 00000KT M02/M03 A3012 RMK AO1 SLP153 T10221033 56006

More Conditions Fewer Conditions

10-Day Weather Forecast

Almanac

Astronomy

Oct. 25, 2014 Rise Set
Actual Time 8:07 AM MDT 6:38 PM MDT
Civil Twilight 7:37 AM MDT 7:08 PM MDT
Nautical Twilight 7:03 AM MDT 7:42 PM MDT
Astronomical Twilight 6:30 AM MDT 8:16 PM MDT
Moon 9:53 AM MDT 8:01 PM MDT
Length of Visible Light 11h 31m
Length of Day
10h 31m
Tomorrow will be 2m 50s shorter.
New Moon, 2% of the Moon is Illuminated
Today
New Moon
Oct 30
First Quarter
Nov 6
Full
Nov 14
Last Quarter
Nov 22
New

Today's Extremes

State Highs State Lows

Community

WunderPhotos

Upload Photos

1,764,796 photos uploaded!

Nearby

Snow Depth

Station Depth Elevation
Banner Summit 0 in 7040 ft
Mill Creek Summit 2 in 8800 ft
Galena 1 in 7440 ft
Galena Summit 1 in 8780 ft
Jackson Peak 1 in 7070 ft

Earthquake Activity

City Distance Mag. Time & Date
No recent earthquake activity has been reported nearby.
Minimum magnitude displayed is 2.5.

Coastal Water Temperatures

Place Temperature
No Stations Reporting

Nearby Weather Stations